createdAt,value
2019-01-25T00:02:51.059Z,29.10
2019-01-25T00:35:14.236Z,44.10
2019-01-25T00:57:27.120Z,45.70
2019-01-25T01:19:25.393Z,47.20
2019-01-25T01:24:23.102Z,37.70
2019-01-25T01:29:13.275Z,29.40
2019-01-25T01:34:13.717Z,33.40
2019-01-25T01:39:03.005Z,29.60
2019-01-25T01:43:51.593Z,28.90
2019-01-25T01:48:43.035Z,29.80
2019-01-25T01:53:33.887Z,29.30
2019-01-25T02:11:22.627Z,45.80
2019-01-25T02:16:10.208Z,35.70
2019-01-25T02:21:01.038Z,31.80
2019-01-25T02:25:50.683Z,29.30
2019-01-25T02:30:55.012Z,33.60
2019-01-25T02:35:42.329Z,30.80
2019-01-25T02:44:16.203Z,44.80
2019-01-25T02:49:09.141Z,37.20
2019-01-25T02:53:59.606Z,31.70
2019-01-25T02:58:51.960Z,30.50
2019-01-25T03:03:43.899Z,30.40
2019-01-25T03:15:02.630Z,34.30
2019-01-25T03:20:24.195Z,33.50
2019-01-25T03:25:10.540Z,33.80
2019-01-25T03:30:01.512Z,29.50
2019-01-25T04:38:33.501Z,48.00
2019-01-25T04:43:20.489Z,35.40
2019-01-25T04:48:30.088Z,33.80
2019-01-25T05:07:19.201Z,48.00
2019-01-25T05:19:50.326Z,42.00
2019-01-25T05:33:40.689Z,43.60
2019-01-25T05:38:40.955Z,37.00
2019-01-25T05:43:43.569Z,35.70
2019-01-25T06:04:25.973Z,49.60
2019-01-25T06:09:21.409Z,41.00
2019-01-25T06:14:22.641Z,42.00
2019-01-25T06:19:24.398Z,40.30
2019-01-25T06:24:29.318Z,40.30
2019-01-25T07:05:02.005Z,59.50
2019-01-25T09:27:06.513Z,65.40
2019-01-25T10:56:11.763Z,54.40
2019-01-25T11:01:23.809Z,42.60
2019-01-25T11:06:20.835Z,39.20
2019-01-25T11:11:16.245Z,37.20
2019-01-25T11:16:12.314Z,30.50
2019-01-25T11:21:04.599Z,26.50
2019-01-25T11:24:01.554Z,23.90
2019-01-25T11:28:59.203Z,18.30
2019-01-25T11:33:51.841Z,17.50
2019-01-25T11:38:44.133Z,19.20
2019-01-25T11:43:36.226Z,16.20
2019-01-25T11:48:26.175Z,14.70
2019-01-25T11:53:19.451Z,14.50
2019-01-25T11:58:11.830Z,12.10
2019-01-25T12:03:05.152Z,12.70
2019-01-25T12:07:58.629Z,14.00
2019-01-25T12:12:51.920Z,12.20
2019-01-25T12:17:45.377Z,12.20
2019-01-25T12:22:38.594Z,12.30
2019-01-25T12:27:32.101Z,10.30
2019-01-25T12:32:23.258Z,15.20
2019-01-25T12:37:17.140Z,12.60
2019-01-25T12:42:10.469Z,14.20
2019-01-25T12:47:01.766Z,11.10
2019-01-25T12:51:54.301Z,11.40
2019-01-25T12:56:46.034Z,9.80
2019-01-25T13:01:39.873Z,11.40
2019-01-25T13:06:31.283Z,11.10
2019-01-25T13:11:25.045Z,12.90
2019-01-25T13:16:16.437Z,10.50
2019-01-25T13:21:09.083Z,12.10
2019-01-25T13:26:02.757Z,10.30
2019-01-25T13:30:54.114Z,10.50
2019-01-25T13:35:46.380Z,11.30
2019-01-25T13:40:38.334Z,10.80
2019-01-25T13:45:32.287Z,10.70
2019-01-25T13:50:23.643Z,11.30
2019-01-25T13:55:15.402Z,9.60
2019-01-25T14:00:07.263Z,11.80
2019-01-25T14:05:00.234Z,10.10
2019-01-25T14:09:51.853Z,10.00
2019-01-25T14:14:43.566Z,11.00
2019-01-25T14:19:35.409Z,11.50
2019-01-25T14:24:27.386Z,5.80
2019-01-25T14:29:20.990Z,11.50
2019-01-25T14:34:12.880Z,8.00
2019-01-25T14:39:04.741Z,7.60
2019-01-25T14:43:56.703Z,8.30
2019-01-25T14:48:48.458Z,6.90
2019-01-25T14:53:42.215Z,10.90
2019-01-25T14:58:35.740Z,10.10
2019-01-25T15:03:29.265Z,9.80
2019-01-25T15:08:20.595Z,9.10
2019-01-25T15:13:12.294Z,7.30
2019-01-25T15:18:03.978Z,7.80
2019-01-25T15:22:56.742Z,8.00
2019-01-25T15:27:48.375Z,10.30
2019-01-25T15:32:40.157Z,8.00
2019-01-25T15:37:34.017Z,10.10
2019-01-25T15:42:25.049Z,8.90
2019-01-25T15:47:19.744Z,10.40
2019-01-25T15:52:10.921Z,9.80
2019-01-25T15:57:02.572Z,9.50
2019-01-25T16:01:54.330Z,9.30
2019-01-25T16:06:46.003Z,9.50
2019-01-25T16:11:40.017Z,11.40
2019-01-25T16:16:31.137Z,10.10
2019-01-25T16:21:22.921Z,9.90
2019-01-25T16:26:14.824Z,10.10
2019-01-25T16:31:06.470Z,10.80
2019-01-25T16:35:59.378Z,10.20
2019-01-25T16:40:51.124Z,12.00
2019-01-25T16:45:42.554Z,13.60
2019-01-25T16:50:34.947Z,17.40
2019-01-25T16:55:24.273Z,7.80
2019-01-25T17:00:14.502Z,11.40
2019-01-25T17:05:04.891Z,13.30
2019-01-25T17:09:55.452Z,11.60
2019-01-25T17:14:44.886Z,13.10
2019-01-25T17:19:36.093Z,12.30
2019-01-25T17:24:24.851Z,12.70
2019-01-25T17:29:14.666Z,13.10
2019-01-25T17:34:13.785Z,10.20
2019-01-25T17:39:18.344Z,13.70
2019-01-25T17:44:21.841Z,15.10
2019-01-25T17:49:10.660Z,9.00
2019-01-25T17:54:01.852Z,11.70
2019-01-25T17:59:07.476Z,13.60
2019-01-25T18:04:10.858Z,13.30
2019-01-25T18:09:13.062Z,13.00
2019-01-25T18:14:15.942Z,13.70
2019-01-25T18:19:18.858Z,12.70
2019-01-25T18:24:21.561Z,14.10
2019-01-25T18:29:17.027Z,13.30
2019-01-25T18:34:20.295Z,13.60
2019-01-25T18:39:09.543Z,11.30
2019-01-25T18:44:16.067Z,13.70
2019-01-25T18:49:19.151Z,14.80
2019-01-25T18:54:19.122Z,12.80
2019-01-25T18:59:20.630Z,14.70
2019-01-25T19:04:15.293Z,12.60
2019-01-25T19:09:18.987Z,13.70
2019-01-25T19:14:19.676Z,13.70
2019-01-25T19:19:22.611Z,12.60
2019-01-25T19:24:24.376Z,13.40
2019-01-25T19:29:30.756Z,14.40
2019-01-25T19:34:34.053Z,14.10
2019-01-25T19:39:22.524Z,9.30
2019-01-25T19:44:27.991Z,13.50
2019-01-25T19:49:31.394Z,12.50
2019-01-25T19:54:33.810Z,12.50
2019-01-25T19:59:22.516Z,12.70
2019-01-25T20:04:27.920Z,13.70
2019-01-25T20:09:31.542Z,14.20
2019-01-25T20:14:19.915Z,12.00
2019-01-25T20:19:10.680Z,10.10
2019-01-25T20:24:00.571Z,9.80
2019-01-25T20:29:06.260Z,13.00
2019-01-25T20:34:09.342Z,12.50
2019-01-25T20:39:12.746Z,15.30
2019-01-25T20:44:00.908Z,10.00
2019-01-25T20:49:04.181Z,14.10
2019-01-25T20:54:07.431Z,13.40
2019-01-25T20:58:53.329Z,11.30
2019-01-25T21:03:43.845Z,9.40
2019-01-25T21:08:48.441Z,13.50
2019-01-25T21:13:50.904Z,13.10
2019-01-25T21:18:48.397Z,13.20
2019-01-25T21:23:38.351Z,12.10
2019-01-25T21:28:43.632Z,12.20
2019-01-25T21:33:41.058Z,11.70
2019-01-25T21:38:30.038Z,8.80
2019-01-25T21:43:33.631Z,11.20
2019-01-25T21:48:36.775Z,12.40
2019-01-25T21:53:40.189Z,11.10
2019-01-25T21:58:43.729Z,11.80
2019-01-25T22:03:38.957Z,11.70
2019-01-25T22:08:28.102Z,11.80
2019-01-25T22:13:17.077Z,11.50
2019-01-25T22:18:07.843Z,10.20
2019-01-25T22:23:13.197Z,14.00
2019-01-25T22:28:00.339Z,12.00
2019-01-25T22:33:00.164Z,11.70
2019-01-25T22:37:50.080Z,12.30
2019-01-25T22:42:40.575Z,10.90
2019-01-25T22:47:31.524Z,10.40
2019-01-25T22:52:23.137Z,10.20
2019-01-25T22:57:14.264Z,11.80
2019-01-25T23:02:05.180Z,8.40
2019-01-25T23:06:55.971Z,9.60
2019-01-25T23:11:46.038Z,10.40
2019-01-25T23:16:38.763Z,11.10
2019-01-25T23:21:28.229Z,10.30
2019-01-25T23:26:19.644Z,11.90
2019-01-25T23:31:27.741Z,15.20
2019-01-25T23:36:13.745Z,15.60
2019-01-25T23:41:05.400Z,11.10
2019-01-25T23:45:56.927Z,15.20
2019-01-25T23:50:48.525Z,12.00
2019-01-25T23:55:40.353Z,12.40
